LFOB 301030Z AUTO 09012KT 020V160 CAVOK 23/06 Q1021 NOSIG

ElémentsDécodage
LFOB Station météo située sur l'aérodrome de BEAUVAIS Tillé
301030Z émis le 30 du mois à 10h30 UTC
AUTO Bulletin édité par un automate
09012KT vent du 090°, 12 noeuds
020V160 vent de direction variable entre 020° et 160°
CAVOK Ceiling And Visibility OK
- Visibilité de 10 Km ou plus
- Pas de nuage au-dessous de 1500m ou au-dessous de l'altitude minimale du secteur la plus élevée (si>1500m) et absence de CB
- pas de temps présent significatif
23/06 température 23°C, point de rosée 06°C
 soit une humidité relative de 33%
Q1021 la pression au niveau de la mer (QNH) est de 1021 hPa
NOSIG Pas de changement significatif prévu au cours des deux heures suivant l'heure de l'observation